Ashburn, Virginia
Current Conditions -  °F | °C
As of 9:35 PM on Friday 21 Nov 2014 (Local Time) from KJYO Reporting Station
Clear Clear  
Wind Chill: 27°   Ceiling: Unl
Heat Index: 27°   Visibility: 10mi
Dew Point: 16°   Wind: 0mph
Humidity: 64%   Direction: NA
Pressure: 30.56"   Gusts: NA
Location:  39.04°N, 77.48°W
Report Text: KJYO 220235Z AUTO 00000KT 10SM CLR M03/M09 A3056 RMK AO2
Loading
Personal Weather Stations






























Interactive Weather Map New forecast layout! Learn more

10-Day Weather Forecast

Advertisements
Track Severe Weather on mobile